sensor_id;sensor_type;location;lat;lon;timestamp;P1;durP1;ratioP1;P2;durP2;ratioP2
4430;SDS011;2228;48.140;11.488;2022-10-28T00:00:48;12.20;;;6.10;;
4430;SDS011;2228;48.140;11.488;2022-10-28T00:03:15;9.27;;;5.82;;
4430;SDS011;2228;48.140;11.488;2022-10-28T00:05:42;9.80;;;5.53;;
4430;SDS011;2228;48.140;11.488;2022-10-28T00:08:09;10.85;;;5.32;;
4430;SDS011;2228;48.140;11.488;2022-10-28T00:10:36;8.18;;;5.00;;
4430;SDS011;2228;48.140;11.488;2022-10-28T00:13:03;7.78;;;4.53;;
4430;SDS011;2228;48.140;11.488;2022-10-28T00:15:32;12.68;;;5.07;;
4430;SDS011;2228;48.140;11.488;2022-10-28T00:17:59;8.40;;;5.18;;
4430;SDS011;2228;48.140;11.488;2022-10-28T00:20:26;10.40;;;5.60;;
4430;SDS011;2228;48.140;11.488;2022-10-28T00:22:54;12.38;;;5.07;;
4430;SDS011;2228;48.140;11.488;2022-10-28T00:25:21;8.27;;;4.20;;
4430;SDS011;2228;48.140;11.488;2022-10-28T00:27:49;11.75;;;4.40;;
4430;SDS011;2228;48.140;11.488;2022-10-28T00:30:16;13.17;;;5.10;;
4430;SDS011;2228;48.140;11.488;2022-10-28T00:32:44;9.43;;;4.50;;
4430;SDS011;2228;48.140;11.488;2022-10-28T00:35:11;6.75;;;4.20;;
4430;SDS011;2228;48.140;11.488;2022-10-28T00:37:38;7.13;;;4.13;;
4430;SDS011;2228;48.140;11.488;2022-10-28T00:40:05;10.27;;;4.00;;
4430;SDS011;2228;48.140;11.488;2022-10-28T00:42:32;9.07;;;4.15;;
4430;SDS011;2228;48.140;11.488;2022-10-28T00:45:00;7.80;;;3.80;;
4430;SDS011;2228;48.140;11.488;2022-10-28T00:47:32;6.75;;;3.90;;
4430;SDS011;2228;48.140;11.488;2022-10-28T00:50:14;6.82;;;3.80;;
4430;SDS011;2228;48.140;11.488;2022-10-28T00:52:46;8.27;;;3.70;;
4430;SDS011;2228;48.140;11.488;2022-10-28T00:55:16;8.40;;;3.90;;
4430;SDS011;2228;48.140;11.488;2022-10-28T00:57:44;9.77;;;4.30;;
4430;SDS011;2228;48.140;11.488;2022-10-28T01:00:12;7.25;;;4.15;;
4430;SDS011;2228;48.140;11.488;2022-10-28T01:02:42;7.95;;;3.90;;
4430;SDS011;2228;48.140;11.488;2022-10-28T01:05:10;8.98;;;3.65;;
4430;SDS011;2228;48.140;11.488;2022-10-28T01:07:40;14.23;;;4.15;;
4430;SDS011;2228;48.140;11.488;2022-10-28T01:10:08;6.20;;;3.70;;
4430;SDS011;2228;48.140;11.488;2022-10-28T01:12:38;9.60;;;4.43;;
4430;SDS011;2228;48.140;11.488;2022-10-28T01:15:15;8.00;;;4.10;;
4430;SDS011;2228;48.140;11.488;2022-10-28T01:17:53;5.70;;;3.25;;
4430;SDS011;2228;48.140;11.488;2022-10-28T01:20:47;6.90;;;3.60;;
4430;SDS011;2228;48.140;11.488;2022-10-28T01:23:38;7.32;;;3.67;;
4430;SDS011;2228;48.140;11.488;2022-10-28T01:26:37;7.55;;;3.35;;
4430;SDS011;2228;48.140;11.488;2022-10-28T01:32:22;13.25;;;3.50;;
4430;SDS011;2228;48.140;11.488;2022-10-28T01:34:58;5.15;;;3.38;;
4430;SDS011;2228;48.140;11.488;2022-10-28T01:37:31;5.07;;;3.03;;
4430;SDS011;2228;48.140;11.488;2022-10-28T01:40:02;5.95;;;2.97;;
4430;SDS011;2228;48.140;11.488;2022-10-28T01:42:35;6.33;;;2.80;;
4430;SDS011;2228;48.140;11.488;2022-10-28T01:45:09;7.43;;;3.00;;
4430;SDS011;2228;48.140;11.488;2022-10-28T01:47:43;7.27;;;3.40;;
4430;SDS011;2228;48.140;11.488;2022-10-28T01:50:16;8.02;;;3.20;;
4430;SDS011;2228;48.140;11.488;2022-10-28T01:52:49;6.60;;;3.15;;
4430;SDS011;2228;48.140;11.488;2022-10-28T01:55:20;8.52;;;3.08;;
4430;SDS011;2228;48.140;11.488;2022-10-28T01:57:52;5.83;;;2.70;;
4430;SDS011;2228;48.140;11.488;2022-10-28T02:00:22;5.80;;;2.65;;
4430;SDS011;2228;48.140;11.488;2022-10-28T02:02:51;8.25;;;2.97;;
4430;SDS011;2228;48.140;11.488;2022-10-28T02:05:37;6.20;;;2.90;;
4430;SDS011;2228;48.140;11.488;2022-10-28T02:08:18;6.75;;;2.70;;
4430;SDS011;2228;48.140;11.488;2022-10-28T02:10:57;5.72;;;2.30;;
4430;SDS011;2228;48.140;11.488;2022-10-28T02:13:38;4.85;;;2.58;;
4430;SDS011;2228;48.140;11.488;2022-10-28T02:16:11;10.25;;;2.90;;
4430;SDS011;2228;48.140;11.488;2022-10-28T02:18:47;4.45;;;2.47;;
4430;SDS011;2228;48.140;11.488;2022-10-28T02:21:23;5.15;;;2.85;;
4430;SDS011;2228;48.140;11.488;2022-10-28T02:24:00;6.77;;;2.80;;
4430;SDS011;2228;48.140;11.488;2022-10-28T02:26:35;7.55;;;2.80;;
4430;SDS011;2228;48.140;11.488;2022-10-28T02:29:07;6.90;;;2.63;;
4430;SDS011;2228;48.140;11.488;2022-10-28T02:31:41;5.97;;;2.80;;
4430;SDS011;2228;48.140;11.488;2022-10-28T02:34:13;5.00;;;2.45;;
4430;SDS011;2228;48.140;11.488;2022-10-28T02:36:44;5.22;;;2.50;;
4430;SDS011;2228;48.140;11.488;2022-10-28T02:39:15;6.97;;;2.70;;
4430;SDS011;2228;48.140;11.488;2022-10-28T02:41:47;6.70;;;2.53;;
4430;SDS011;2228;48.140;11.488;2022-10-28T02:44:20;5.40;;;3.30;;
4430;SDS011;2228;48.140;11.488;2022-10-28T02:46:51;7.25;;;2.40;;
4430;SDS011;2228;48.140;11.488;2022-10-28T02:49:24;5.72;;;2.53;;
4430;SDS011;2228;48.140;11.488;2022-10-28T02:51:53;6.45;;;2.80;;
4430;SDS011;2228;48.140;11.488;2022-10-28T02:54:24;6.80;;;2.70;;
4430;SDS011;2228;48.140;11.488;2022-10-28T02:56:56;7.30;;;2.90;;
4430;SDS011;2228;48.140;11.488;2022-10-28T02:59:27;4.35;;;2.45;;
4430;SDS011;2228;48.140;11.488;2022-10-28T03:01:54;6.38;;;2.40;;
4430;SDS011;2228;48.140;11.488;2022-10-28T03:04:21;4.28;;;2.60;;
4430;SDS011;2228;48.140;11.488;2022-10-28T03:06:49;6.57;;;2.60;;
4430;SDS011;2228;48.140;11.488;2022-10-28T03:09:16;6.32;;;2.60;;
4430;SDS011;2228;48.140;11.488;2022-10-28T03:11:43;3.65;;;2.35;;
4430;SDS011;2228;48.140;11.488;2022-10-28T03:14:10;5.25;;;2.60;;
4430;SDS011;2228;48.140;11.488;2022-10-28T03:16:36;5.40;;;2.53;;
4430;SDS011;2228;48.140;11.488;2022-10-28T03:19:03;6.65;;;2.40;;
4430;SDS011;2228;48.140;11.488;2022-10-28T03:21:30;5.60;;;2.25;;
4430;SDS011;2228;48.140;11.488;2022-10-28T03:23:58;3.72;;;2.47;;
4430;SDS011;2228;48.140;11.488;2022-10-28T03:26:26;4.60;;;2.50;;
4430;SDS011;2228;48.140;11.488;2022-10-28T03:28:53;5.85;;;2.47;;
4430;SDS011;2228;48.140;11.488;2022-10-28T03:31:20;8.25;;;3.70;;
4430;SDS011;2228;48.140;11.488;2022-10-28T03:33:47;6.03;;;3.03;;
4430;SDS011;2228;48.140;11.488;2022-10-28T03:36:13;5.28;;;2.47;;
4430;SDS011;2228;48.140;11.488;2022-10-28T03:38:40;8.55;;;3.22;;
4430;SDS011;2228;48.140;11.488;2022-10-28T03:41:08;6.07;;;2.53;;
4430;SDS011;2228;48.140;11.488;2022-10-28T03:43:35;5.60;;;2.80;;
4430;SDS011;2228;48.140;11.488;2022-10-28T03:46:02;5.60;;;2.60;;
4430;SDS011;2228;48.140;11.488;2022-10-28T03:48:29;9.82;;;3.30;;
4430;SDS011;2228;48.140;11.488;2022-10-28T03:50:56;9.05;;;3.50;;
4430;SDS011;2228;48.140;11.488;2022-10-28T03:53:23;5.80;;;3.30;;
4430;SDS011;2228;48.140;11.488;2022-10-28T03:55:50;6.10;;;3.00;;
4430;SDS011;2228;48.140;11.488;2022-10-28T03:58:19;6.70;;;3.20;;
4430;SDS011;2228;48.140;11.488;2022-10-28T04:00:46;5.80;;;2.80;;
4430;SDS011;2228;48.140;11.488;2022-10-28T04:03:13;5.93;;;2.90;;
4430;SDS011;2228;48.140;11.488;2022-10-28T04:05:41;7.82;;;2.90;;
4430;SDS011;2228;48.140;11.488;2022-10-28T04:08:08;6.47;;;2.80;;
4430;SDS011;2228;48.140;11.488;2022-10-28T04:10:35;4.97;;;2.88;;
4430;SDS011;2228;48.140;11.488;2022-10-28T04:13:02;5.80;;;3.60;;
4430;SDS011;2228;48.140;11.488;2022-10-28T04:15:32;11.73;;;3.83;;
4430;SDS011;2228;48.140;11.488;2022-10-28T04:17:59;6.00;;;3.30;;
4430;SDS011;2228;48.140;11.488;2022-10-28T04:20:26;10.15;;;3.75;;
4430;SDS011;2228;48.140;11.488;2022-10-28T04:22:53;9.00;;;3.40;;
4430;SDS011;2228;48.140;11.488;2022-10-28T04:25:20;6.47;;;3.70;;
4430;SDS011;2228;48.140;11.488;2022-10-28T04:27:48;12.90;;;4.22;;
4430;SDS011;2228;48.140;11.488;2022-10-28T04:30:15;9.10;;;3.90;;
4430;SDS011;2228;48.140;11.488;2022-10-28T04:32:43;8.65;;;3.50;;
4430;SDS011;2228;48.140;11.488;2022-10-28T04:35:11;5.47;;;3.30;;
4430;SDS011;2228;48.140;11.488;2022-10-28T04:37:39;6.10;;;3.03;;
4430;SDS011;2228;48.140;11.488;2022-10-28T04:40:07;7.40;;;3.30;;
4430;SDS011;2228;48.140;11.488;2022-10-28T04:42:34;8.88;;;3.33;;
4430;SDS011;2228;48.140;11.488;2022-10-28T04:45:01;7.03;;;4.05;;
4430;SDS011;2228;48.140;11.488;2022-10-28T04:47:28;7.68;;;3.78;;
4430;SDS011;2228;48.140;11.488;2022-10-28T04:49:56;4.10;;;3.10;;
4430;SDS011;2228;48.140;11.488;2022-10-28T04:52:23;8.38;;;3.03;;
4430;SDS011;2228;48.140;11.488;2022-10-28T04:54:50;7.32;;;3.00;;
4430;SDS011;2228;48.140;11.488;2022-10-28T04:57:17;5.50;;;3.17;;
4430;SDS011;2228;48.140;11.488;2022-10-28T04:59:43;9.63;;;3.80;;
4430;SDS011;2228;48.140;11.488;2022-10-28T05:02:10;15.07;;;3.95;;
4430;SDS011;2228;48.140;11.488;2022-10-28T05:04:37;8.73;;;4.70;;
4430;SDS011;2228;48.140;11.488;2022-10-28T05:07:05;5.43;;;3.60;;
4430;SDS011;2228;48.140;11.488;2022-10-28T05:09:33;10.15;;;4.40;;
4430;SDS011;2228;48.140;11.488;2022-10-28T05:12:00;7.73;;;3.77;;
4430;SDS011;2228;48.140;11.488;2022-10-28T05:14:27;9.93;;;3.90;;
4430;SDS011;2228;48.140;11.488;2022-10-28T05:16:53;8.38;;;4.40;;
4430;SDS011;2228;48.140;11.488;2022-10-28T05:19:20;5.78;;;4.00;;
4430;SDS011;2228;48.140;11.488;2022-10-28T05:21:47;7.45;;;3.95;;
4430;SDS011;2228;48.140;11.488;2022-10-28T05:26:54;8.05;;;4.15;;
4430;SDS011;2228;48.140;11.488;2022-10-28T05:29:21;9.00;;;4.20;;
4430;SDS011;2228;48.140;11.488;2022-10-28T05:31:48;6.40;;;3.80;;
4430;SDS011;2228;48.140;11.488;2022-10-28T05:34:15;8.93;;;4.40;;
4430;SDS011;2228;48.140;11.488;2022-10-28T05:36:42;12.13;;;4.30;;
4430;SDS011;2228;48.140;11.488;2022-10-28T05:39:09;8.13;;;4.40;;
4430;SDS011;2228;48.140;11.488;2022-10-28T05:41:36;7.90;;;3.80;;
4430;SDS011;2228;48.140;11.488;2022-10-28T05:44:05;9.23;;;3.90;;
4430;SDS011;2228;48.140;11.488;2022-10-28T05:46:32;9.05;;;4.30;;
4430;SDS011;2228;48.140;11.488;2022-10-28T05:48:59;6.83;;;3.80;;
4430;SDS011;2228;48.140;11.488;2022-10-28T05:51:26;7.28;;;3.55;;
4430;SDS011;2228;48.140;11.488;2022-10-28T05:53:53;6.60;;;3.47;;
4430;SDS011;2228;48.140;11.488;2022-10-28T05:56:20;10.27;;;4.45;;
4430;SDS011;2228;48.140;11.488;2022-10-28T05:58:47;6.97;;;3.88;;
4430;SDS011;2228;48.140;11.488;2022-10-28T06:01:15;8.18;;;3.42;;
4430;SDS011;2228;48.140;11.488;2022-10-28T06:03:42;8.00;;;3.80;;
4430;SDS011;2228;48.140;11.488;2022-10-28T06:06:09;10.88;;;4.20;;
4430;SDS011;2228;48.140;11.488;2022-10-28T06:08:36;8.57;;;4.63;;
4430;SDS011;2228;48.140;11.488;2022-10-28T06:11:03;9.40;;;3.80;;
4430;SDS011;2228;48.140;11.488;2022-10-28T06:13:30;11.67;;;5.40;;
4430;SDS011;2228;48.140;11.488;2022-10-28T06:15:56;10.18;;;3.90;;
4430;SDS011;2228;48.140;11.488;2022-10-28T06:18:25;7.43;;;3.47;;
4430;SDS011;2228;48.140;11.488;2022-10-28T06:20:52;7.65;;;3.60;;
4430;SDS011;2228;48.140;11.488;2022-10-28T06:23:20;10.35;;;4.43;;
4430;SDS011;2228;48.140;11.488;2022-10-28T06:25:47;8.93;;;4.55;;
4430;SDS011;2228;48.140;11.488;2022-10-28T06:28:14;10.70;;;4.33;;
4430;SDS011;2228;48.140;11.488;2022-10-28T06:30:41;12.05;;;4.80;;
4430;SDS011;2228;48.140;11.488;2022-10-28T06:33:08;9.95;;;4.40;;
4430;SDS011;2228;48.140;11.488;2022-10-28T06:35:36;7.80;;;4.10;;
4430;SDS011;2228;48.140;11.488;2022-10-28T06:38:03;8.68;;;3.70;;
4430;SDS011;2228;48.140;11.488;2022-10-28T06:40:30;5.75;;;3.60;;
4430;SDS011;2228;48.140;11.488;2022-10-28T06:42:57;7.45;;;4.30;;
4430;SDS011;2228;48.140;11.488;2022-10-28T06:45:24;7.70;;;3.90;;
4430;SDS011;2228;48.140;11.488;2022-10-28T06:47:53;7.28;;;4.18;;
4430;SDS011;2228;48.140;11.488;2022-10-28T06:50:21;10.05;;;4.05;;
4430;SDS011;2228;48.140;11.488;2022-10-28T06:52:50;8.38;;;3.60;;
4430;SDS011;2228;48.140;11.488;2022-10-28T06:55:17;10.95;;;4.00;;
4430;SDS011;2228;48.140;11.488;2022-10-28T06:57:43;8.25;;;4.07;;
4430;SDS011;2228;48.140;11.488;2022-10-28T07:00:11;10.27;;;5.00;;
4430;SDS011;2228;48.140;11.488;2022-10-28T07:02:38;11.63;;;4.27;;
4430;SDS011;2228;48.140;11.488;2022-10-28T07:05:06;11.37;;;4.30;;
4430;SDS011;2228;48.140;11.488;2022-10-28T07:07:33;6.03;;;3.83;;
4430;SDS011;2228;48.140;11.488;2022-10-28T07:10:03;5.80;;;4.28;;
4430;SDS011;2228;48.140;11.488;2022-10-28T07:12:30;8.65;;;4.38;;
4430;SDS011;2228;48.140;11.488;2022-10-28T07:14:57;7.00;;;3.55;;
4430;SDS011;2228;48.140;11.488;2022-10-28T07:17:24;6.05;;;3.58;;
4430;SDS011;2228;48.140;11.488;2022-10-28T07:19:51;7.30;;;3.63;;
4430;SDS011;2228;48.140;11.488;2022-10-28T07:22:18;11.80;;;4.10;;
4430;SDS011;2228;48.140;11.488;2022-10-28T07:24:45;9.30;;;3.22;;
4430;SDS011;2228;48.140;11.488;2022-10-28T07:27:13;8.65;;;3.60;;
4430;SDS011;2228;48.140;11.488;2022-10-28T07:29:40;9.68;;;3.40;;
4430;SDS011;2228;48.140;11.488;2022-10-28T07:32:07;5.30;;;3.60;;
4430;SDS011;2228;48.140;11.488;2022-10-28T07:34:34;9.30;;;3.60;;
4430;SDS011;2228;48.140;11.488;2022-10-28T07:37:00;5.05;;;3.20;;
4430;SDS011;2228;48.140;11.488;2022-10-28T07:39:28;7.70;;;3.00;;
4430;SDS011;2228;48.140;11.488;2022-10-28T07:41:55;6.65;;;2.70;;
4430;SDS011;2228;48.140;11.488;2022-10-28T07:44:23;5.05;;;2.45;;
4430;SDS011;2228;48.140;11.488;2022-10-28T07:46:50;5.15;;;3.00;;
4430;SDS011;2228;48.140;11.488;2022-10-28T07:49:17;5.15;;;3.00;;
4430;SDS011;2228;48.140;11.488;2022-10-28T07:51:44;8.60;;;2.30;;
4430;SDS011;2228;48.140;11.488;2022-10-28T07:54:11;4.85;;;1.90;;
4430;SDS011;2228;48.140;11.488;2022-10-28T07:56:38;6.20;;;2.10;;
4430;SDS011;2228;48.140;11.488;2022-10-28T07:59:05;9.65;;;2.75;;
4430;SDS011;2228;48.140;11.488;2022-10-28T08:01:33;7.40;;;1.92;;
4430;SDS011;2228;48.140;11.488;2022-10-28T08:04:00;4.00;;;1.60;;
4430;SDS011;2228;48.140;11.488;2022-10-28T08:06:27;6.65;;;1.75;;
4430;SDS011;2228;48.140;11.488;2022-10-28T08:08:54;7.60;;;1.70;;
4430;SDS011;2228;48.140;11.488;2022-10-28T08:11:22;5.25;;;1.20;;
4430;SDS011;2228;48.140;11.488;2022-10-28T08:13:49;6.40;;;1.50;;
4430;SDS011;2228;48.140;11.488;2022-10-28T08:16:17;6.90;;;1.90;;
4430;SDS011;2228;48.140;11.488;2022-10-28T08:18:45;2.40;;;1.30;;
4430;SDS011;2228;48.140;11.488;2022-10-28T08:21:12;3.08;;;1.60;;
4430;SDS011;2228;48.140;11.488;2022-10-28T08:23:40;4.95;;;1.60;;
4430;SDS011;2228;48.140;11.488;2022-10-28T08:26:10;3.08;;;1.10;;
4430;SDS011;2228;48.140;11.488;2022-10-28T08:28:38;4.80;;;1.50;;
4430;SDS011;2228;48.140;11.488;2022-10-28T08:31:05;4.97;;;1.50;;
4430;SDS011;2228;48.140;11.488;2022-10-28T08:33:34;4.73;;;1.50;;
4430;SDS011;2228;48.140;11.488;2022-10-28T08:36:03;4.45;;;2.00;;
4430;SDS011;2228;48.140;11.488;2022-10-28T08:38:31;3.63;;;1.30;;
4430;SDS011;2228;48.140;11.488;2022-10-28T08:41:00;4.93;;;1.30;;
4430;SDS011;2228;48.140;11.488;2022-10-28T08:43:39;3.80;;;1.40;;
4430;SDS011;2228;48.140;11.488;2022-10-28T08:46:19;1.77;;;1.13;;
4430;SDS011;2228;48.140;11.488;2022-10-28T08:48:56;2.47;;;1.20;;
4430;SDS011;2228;48.140;11.488;2022-10-28T08:51:29;4.43;;;1.30;;
4430;SDS011;2228;48.140;11.488;2022-10-28T08:54:05;6.15;;;1.40;;
4430;SDS011;2228;48.140;11.488;2022-10-28T08:56:38;4.90;;;1.60;;
4430;SDS011;2228;48.140;11.488;2022-10-28T08:59:11;6.00;;;1.80;;
4430;SDS011;2228;48.140;11.488;2022-10-28T09:01:44;5.85;;;1.60;;
4430;SDS011;2228;48.140;11.488;2022-10-28T09:04:15;2.77;;;1.40;;
4430;SDS011;2228;48.140;11.488;2022-10-28T09:06:50;2.90;;;1.33;;
4430;SDS011;2228;48.140;11.488;2022-10-28T09:09:18;4.22;;;1.30;;
4430;SDS011;2228;48.140;11.488;2022-10-28T09:11:50;4.15;;;1.40;;
4430;SDS011;2228;48.140;11.488;2022-10-28T09:14:27;4.75;;;1.50;;
4430;SDS011;2228;48.140;11.488;2022-10-28T09:17:09;5.00;;;1.58;;
4430;SDS011;2228;48.140;11.488;2022-10-28T09:19:44;4.40;;;2.03;;
4430;SDS011;2228;48.140;11.488;2022-10-28T09:22:19;6.50;;;2.50;;
4430;SDS011;2228;48.140;11.488;2022-10-28T09:24:50;10.57;;;2.80;;
4430;SDS011;2228;48.140;11.488;2022-10-28T09:27:22;8.23;;;3.03;;
4430;SDS011;2228;48.140;11.488;2022-10-28T09:29:57;12.15;;;3.40;;
4430;SDS011;2228;48.140;11.488;2022-10-28T09:32:34;9.27;;;3.15;;
4430;SDS011;2228;48.140;11.488;2022-10-28T09:35:07;8.30;;;3.38;;
4430;SDS011;2228;48.140;11.488;2022-10-28T09:37:40;9.50;;;3.20;;
4430;SDS011;2228;48.140;11.488;2022-10-28T09:40:13;6.57;;;2.53;;
4430;SDS011;2228;48.140;11.488;2022-10-28T09:42:45;6.53;;;2.20;;
4430;SDS011;2228;48.140;11.488;2022-10-28T09:45:18;5.95;;;1.75;;
4430;SDS011;2228;48.140;11.488;2022-10-28T09:47:50;4.70;;;1.73;;
4430;SDS011;2228;48.140;11.488;2022-10-28T09:50:22;3.33;;;1.60;;
4430;SDS011;2228;48.140;11.488;2022-10-28T09:52:58;6.07;;;1.40;;
4430;SDS011;2228;48.140;11.488;2022-10-28T09:55:29;7.05;;;1.30;;
4430;SDS011;2228;48.140;11.488;2022-10-28T09:57:57;4.60;;;1.20;;
4430;SDS011;2228;48.140;11.488;2022-10-28T10:00:24;2.97;;;1.30;;
4430;SDS011;2228;48.140;11.488;2022-10-28T10:02:53;2.92;;;1.20;;
4430;SDS011;2228;48.140;11.488;2022-10-28T10:05:22;5.93;;;1.20;;
4430;SDS011;2228;48.140;11.488;2022-10-28T10:07:50;3.33;;;1.40;;
4430;SDS011;2228;48.140;11.488;2022-10-28T10:10:22;3.43;;;1.40;;
4430;SDS011;2228;48.140;11.488;2022-10-28T10:12:52;3.30;;;1.20;;
4430;SDS011;2228;48.140;11.488;2022-10-28T10:15:25;1.65;;;1.08;;
4430;SDS011;2228;48.140;11.488;2022-10-28T10:17:55;2.95;;;0.95;;
4430;SDS011;2228;48.140;11.488;2022-10-28T10:20:24;2.28;;;1.15;;
4430;SDS011;2228;48.140;11.488;2022-10-28T10:22:51;2.67;;;1.08;;
4430;SDS011;2228;48.140;11.488;2022-10-28T10:25:23;2.80;;;1.30;;
4430;SDS011;2228;48.140;11.488;2022-10-28T10:27:54;4.15;;;1.00;;
4430;SDS011;2228;48.140;11.488;2022-10-28T10:30:25;4.80;;;1.30;;
4430;SDS011;2228;48.140;11.488;2022-10-28T10:32:54;4.90;;;1.20;;
4430;SDS011;2228;48.140;11.488;2022-10-28T10:35:23;3.90;;;1.27;;
4430;SDS011;2228;48.140;11.488;2022-10-28T10:37:51;1.80;;;1.00;;
4430;SDS011;2228;48.140;11.488;2022-10-28T10:40:23;1.65;;;1.00;;
4430;SDS011;2228;48.140;11.488;2022-10-28T10:42:55;2.72;;;1.15;;
4430;SDS011;2228;48.140;11.488;2022-10-28T10:45:39;1.75;;;0.90;;
4430;SDS011;2228;48.140;11.488;2022-10-28T10:48:11;2.60;;;1.00;;
4430;SDS011;2228;48.140;11.488;2022-10-28T10:50:39;4.30;;;1.30;;
4430;SDS011;2228;48.140;11.488;2022-10-28T10:53:14;2.72;;;1.15;;
4430;SDS011;2228;48.140;11.488;2022-10-28T10:55:48;2.10;;;1.02;;
4430;SDS011;2228;48.140;11.488;2022-10-28T10:58:18;1.20;;;0.93;;
4430;SDS011;2228;48.140;11.488;2022-10-28T11:00:49;1.90;;;1.10;;
4430;SDS011;2228;48.140;11.488;2022-10-28T11:03:18;3.30;;;1.20;;
4430;SDS011;2228;48.140;11.488;2022-10-28T11:05:49;3.20;;;1.20;;
4430;SDS011;2228;48.140;11.488;2022-10-28T11:08:28;1.95;;;0.90;;
4430;SDS011;2228;48.140;11.488;2022-10-28T11:11:03;2.78;;;1.10;;
4430;SDS011;2228;48.140;11.488;2022-10-28T11:13:32;1.70;;;0.90;;
4430;SDS011;2228;48.140;11.488;2022-10-28T11:16:01;1.30;;;0.80;;
4430;SDS011;2228;48.140;11.488;2022-10-28T11:18:37;2.38;;;1.02;;
4430;SDS011;2228;48.140;11.488;2022-10-28T11:21:09;3.17;;;1.10;;
4430;SDS011;2228;48.140;11.488;2022-10-28T11:23:50;3.63;;;1.27;;
4430;SDS011;2228;48.140;11.488;2022-10-28T11:26:27;2.38;;;0.93;;
4430;SDS011;2228;48.140;11.488;2022-10-28T11:29:02;4.35;;;1.00;;
4430;SDS011;2228;48.140;11.488;2022-10-28T11:31:41;4.90;;;1.20;;
4430;SDS011;2228;48.140;11.488;2022-10-28T11:34:34;1.20;;;0.80;;
4430;SDS011;2228;48.140;11.488;2022-10-28T11:37:15;2.67;;;1.10;;
4430;SDS011;2228;48.140;11.488;2022-10-28T11:39:52;2.45;;;1.00;;
4430;SDS011;2228;48.140;11.488;2022-10-28T11:42:33;1.80;;;0.90;;
4430;SDS011;2228;48.140;11.488;2022-10-28T11:45:08;3.28;;;1.08;;
4430;SDS011;2228;48.140;11.488;2022-10-28T11:47:45;2.75;;;1.08;;
4430;SDS011;2228;48.140;11.488;2022-10-28T11:50:30;2.50;;;1.02;;
4430;SDS011;2228;48.140;11.488;2022-10-28T11:56:11;4.70;;;1.33;;
4430;SDS011;2228;48.140;11.488;2022-10-28T11:58:51;3.60;;;0.90;;
4430;SDS011;2228;48.140;11.488;2022-10-28T12:01:39;1.60;;;0.83;;
4430;SDS011;2228;48.140;11.488;2022-10-28T12:04:24;3.20;;;0.80;;
4430;SDS011;2228;48.140;11.488;2022-10-28T12:07:34;2.53;;;0.70;;
4430;SDS011;2228;48.140;11.488;2022-10-28T12:10:23;2.67;;;0.90;;
4430;SDS011;2228;48.140;11.488;2022-10-28T12:13:01;1.60;;;0.85;;
4430;SDS011;2228;48.140;11.488;2022-10-28T12:15:40;3.60;;;0.80;;
4430;SDS011;2228;48.140;11.488;2022-10-28T12:18:15;4.78;;;1.20;;
4430;SDS011;2228;48.140;11.488;2022-10-28T12:20:48;2.28;;;1.02;;
4430;SDS011;2228;48.140;11.488;2022-10-28T12:23:20;2.28;;;0.90;;
4430;SDS011;2228;48.140;11.488;2022-10-28T12:25:50;5.20;;;1.10;;
4430;SDS011;2228;48.140;11.488;2022-10-28T12:28:22;2.20;;;1.00;;
4430;SDS011;2228;48.140;11.488;2022-10-28T12:30:53;3.17;;;1.20;;
4430;SDS011;2228;48.140;11.488;2022-10-28T12:33:23;3.05;;;1.10;;
4430;SDS011;2228;48.140;11.488;2022-10-28T12:35:53;3.90;;;1.00;;
4430;SDS011;2228;48.140;11.488;2022-10-28T12:38:27;3.67;;;0.90;;
4430;SDS011;2228;48.140;11.488;2022-10-28T12:41:01;2.67;;;0.90;;
4430;SDS011;2228;48.140;11.488;2022-10-28T12:43:34;2.67;;;0.90;;
4430;SDS011;2228;48.140;11.488;2022-10-28T12:46:06;2.63;;;0.80;;
4430;SDS011;2228;48.140;11.488;2022-10-28T12:48:42;3.47;;;0.70;;
4430;SDS011;2228;48.140;11.488;2022-10-28T12:51:15;2.33;;;1.10;;
4430;SDS011;2228;48.140;11.488;2022-10-28T12:53:48;2.53;;;0.90;;
4430;SDS011;2228;48.140;11.488;2022-10-28T12:56:21;1.70;;;1.10;;
4430;SDS011;2228;48.140;11.488;2022-10-28T12:58:52;2.58;;;1.05;;
4430;SDS011;2228;48.140;11.488;2022-10-28T13:01:27;1.90;;;1.10;;
4430;SDS011;2228;48.140;11.488;2022-10-28T13:03:57;9.40;;;2.92;;
4430;SDS011;2228;48.140;11.488;2022-10-28T13:06:35;6.72;;;1.67;;
4430;SDS011;2228;48.140;11.488;2022-10-28T13:09:43;5.10;;;1.70;;
4430;SDS011;2228;48.140;11.488;2022-10-28T13:15:22;3.35;;;1.10;;
4430;SDS011;2228;48.140;11.488;2022-10-28T13:18:13;2.92;;;1.20;;
4430;SDS011;2228;48.140;11.488;2022-10-28T13:21:13;6.15;;;1.10;;
4430;SDS011;2228;48.140;11.488;2022-10-28T13:23:53;3.65;;;1.00;;
4430;SDS011;2228;48.140;11.488;2022-10-28T13:26:26;3.10;;;1.02;;
4430;SDS011;2228;48.140;11.488;2022-10-28T13:28:57;2.60;;;0.90;;
4430;SDS011;2228;48.140;11.488;2022-10-28T13:31:34;3.78;;;1.17;;
4430;SDS011;2228;48.140;11.488;2022-10-28T13:34:05;1.70;;;1.00;;
4430;SDS011;2228;48.140;11.488;2022-10-28T13:36:35;2.90;;;1.00;;
4430;SDS011;2228;48.140;11.488;2022-10-28T13:39:13;3.10;;;1.00;;
4430;SDS011;2228;48.140;11.488;2022-10-28T13:41:48;4.50;;;1.08;;
4430;SDS011;2228;48.140;11.488;2022-10-28T13:44:46;2.60;;;1.10;;
4430;SDS011;2228;48.140;11.488;2022-10-28T13:56:10;3.13;;;1.00;;
4430;SDS011;2228;48.140;11.488;2022-10-28T13:58:53;2.45;;;1.02;;
4430;SDS011;2228;48.140;11.488;2022-10-28T14:01:36;2.60;;;1.00;;
4430;SDS011;2228;48.140;11.488;2022-10-28T14:04:18;2.37;;;0.97;;
4430;SDS011;2228;48.140;11.488;2022-10-28T14:06:48;4.18;;;1.30;;
4430;SDS011;2228;48.140;11.488;2022-10-28T14:09:19;5.53;;;0.95;;
4430;SDS011;2228;48.140;11.488;2022-10-28T14:12:01;4.28;;;1.20;;
4430;SDS011;2228;48.140;11.488;2022-10-28T14:14:31;4.70;;;1.00;;
4430;SDS011;2228;48.140;11.488;2022-10-28T14:16:59;4.18;;;1.00;;
4430;SDS011;2228;48.140;11.488;2022-10-28T14:19:26;5.72;;;1.60;;
4430;SDS011;2228;48.140;11.488;2022-10-28T14:21:54;12.23;;;2.20;;
4430;SDS011;2228;48.140;11.488;2022-10-28T14:24:30;8.65;;;3.28;;
4430;SDS011;2228;48.140;11.488;2022-10-28T14:30:10;10.20;;;2.40;;
4430;SDS011;2228;48.140;11.488;2022-10-28T14:32:49;6.22;;;2.20;;
4430;SDS011;2228;48.140;11.488;2022-10-28T14:35:24;10.07;;;1.90;;
4430;SDS011;2228;48.140;11.488;2022-10-28T14:38:04;6.80;;;1.90;;
4430;SDS011;2228;48.140;11.488;2022-10-28T14:40:49;7.13;;;2.10;;
4430;SDS011;2228;48.140;11.488;2022-10-28T14:43:29;10.35;;;2.47;;
4430;SDS011;2228;48.140;11.488;2022-10-28T14:46:10;9.98;;;2.10;;
4430;SDS011;2228;48.140;11.488;2022-10-28T14:48:50;5.95;;;1.90;;
4430;SDS011;2228;48.140;11.488;2022-10-28T14:51:18;5.77;;;1.90;;
4430;SDS011;2228;48.140;11.488;2022-10-28T14:53:48;8.57;;;2.40;;
4430;SDS011;2228;48.140;11.488;2022-10-28T14:56:20;5.50;;;1.58;;
4430;SDS011;2228;48.140;11.488;2022-10-28T14:58:49;9.40;;;2.20;;
4430;SDS011;2228;48.140;11.488;2022-10-28T15:01:18;7.90;;;2.00;;
4430;SDS011;2228;48.140;11.488;2022-10-28T15:04:05;7.55;;;1.75;;
4430;SDS011;2228;48.140;11.488;2022-10-28T15:06:39;5.10;;;2.20;;
4430;SDS011;2228;48.140;11.488;2022-10-28T15:09:17;7.53;;;1.80;;
4430;SDS011;2228;48.140;11.488;2022-10-28T15:11:46;4.75;;;1.98;;
4430;SDS011;2228;48.140;11.488;2022-10-28T15:14:24;4.53;;;2.03;;
4430;SDS011;2228;48.140;11.488;2022-10-28T15:16:53;5.40;;;2.00;;
4430;SDS011;2228;48.140;11.488;2022-10-28T15:19:22;4.40;;;1.95;;
4430;SDS011;2228;48.140;11.488;2022-10-28T15:22:00;4.28;;;1.70;;
4430;SDS011;2228;48.140;11.488;2022-10-28T15:24:28;6.70;;;2.20;;
4430;SDS011;2228;48.140;11.488;2022-10-28T15:26:55;4.68;;;1.75;;
4430;SDS011;2228;48.140;11.488;2022-10-28T15:29:22;5.20;;;1.80;;
4430;SDS011;2228;48.140;11.488;2022-10-28T15:32:08;8.95;;;3.28;;
4430;SDS011;2228;48.140;11.488;2022-10-28T15:34:39;5.07;;;2.50;;
4430;SDS011;2228;48.140;11.488;2022-10-28T15:37:06;9.55;;;2.60;;
4430;SDS011;2228;48.140;11.488;2022-10-28T15:39:33;6.60;;;2.03;;
4430;SDS011;2228;48.140;11.488;2022-10-28T15:42:01;7.60;;;2.00;;
4430;SDS011;2228;48.140;11.488;2022-10-28T15:44:30;6.68;;;2.22;;
4430;SDS011;2228;48.140;11.488;2022-10-28T15:46:59;5.07;;;2.40;;
4430;SDS011;2228;48.140;11.488;2022-10-28T15:49:37;8.77;;;3.60;;